createdAt,value
2017-07-31T00:01:23.876Z,87.00
2017-07-31T00:03:49.912Z,86.90
2017-07-31T00:06:15.937Z,86.80
2017-07-31T00:08:41.956Z,86.60
2017-07-31T00:11:07.972Z,87.20
2017-07-31T00:13:34.723Z,87.10
2017-07-31T00:16:00.744Z,87.10
2017-07-31T00:18:26.769Z,87.40
2017-07-31T00:20:52.795Z,87.80
2017-07-31T00:23:18.818Z,87.40
2017-07-31T00:25:44.837Z,87.90
2017-07-31T00:28:11.593Z,87.90
2017-07-31T00:30:37.621Z,87.90
2017-07-31T00:33:03.630Z,87.90
2017-07-31T00:35:29.653Z,87.70
2017-07-31T00:37:55.656Z,88.10
2017-07-31T00:40:21.704Z,88.00
2017-07-31T00:42:48.453Z,88.20
2017-07-31T00:45:14.461Z,88.10
2017-07-31T00:47:40.485Z,88.70
2017-07-31T00:50:06.497Z,88.00
2017-07-31T00:52:32.516Z,87.40
2017-07-31T00:54:58.531Z,87.50
2017-07-31T00:57:24.550Z,87.50
2017-07-31T00:59:50.575Z,87.20
2017-07-31T01:02:16.594Z,87.80
2017-07-31T01:04:43.355Z,87.80
2017-07-31T01:07:09.385Z,87.80
2017-07-31T01:09:35.396Z,87.80
2017-07-31T01:12:01.422Z,87.80
2017-07-31T01:14:27.452Z,87.80
2017-07-31T01:16:54.209Z,88.30
2017-07-31T01:19:20.225Z,88.30
2017-07-31T01:21:46.293Z,88.40
2017-07-31T01:24:13.069Z,88.60
2017-07-31T01:26:39.094Z,88.60
2017-07-31T01:29:05.128Z,87.80
2017-07-31T01:31:31.159Z,87.90
2017-07-31T01:33:57.204Z,88.50
2017-07-31T01:36:23.232Z,87.90
2017-07-31T01:38:49.268Z,88.00
2017-07-31T01:41:16.042Z,88.60
2017-07-31T01:43:42.091Z,88.60
2017-07-31T01:46:08.878Z,89.10
2017-07-31T01:48:34.916Z,89.10
2017-07-31T01:51:00.968Z,89.00
2017-07-31T01:53:27.000Z,89.10
2017-07-31T01:55:53.021Z,89.90
2017-07-31T01:58:19.047Z,90.30
2017-07-31T02:00:45.090Z,90.50
2017-07-31T02:03:11.866Z,90.80
2017-07-31T02:05:37.913Z,90.80
2017-07-31T02:08:04.689Z,91.40
2017-07-31T02:10:30.724Z,91.10
2017-07-31T02:12:56.773Z,91.20
2017-07-31T02:15:23.574Z,91.60
2017-07-31T02:17:50.360Z,92.00
2017-07-31T02:20:16.422Z,91.70
2017-07-31T02:22:43.210Z,91.70
2017-07-31T02:25:09.249Z,91.70
2017-07-31T02:27:35.265Z,91.70
2017-07-31T02:30:02.084Z,91.50
2017-07-31T02:32:28.848Z,91.20
2017-07-31T02:34:54.881Z,91.30
2017-07-31T02:37:20.927Z,91.30
2017-07-31T02:39:46.977Z,91.20
2017-07-31T02:42:13.029Z,91.10
2017-07-31T02:44:40.543Z,91.00
2017-07-31T02:47:13.604Z,91.40
2017-07-31T02:49:39.795Z,91.10
2017-07-31T02:52:06.040Z,90.90
2017-07-31T02:54:32.255Z,91.00
2017-07-31T02:56:58.440Z,91.30
2017-07-31T02:59:24.691Z,91.40
2017-07-31T03:01:51.533Z,91.70
2017-07-31T03:04:17.578Z,91.30
2017-07-31T03:06:44.348Z,90.90
2017-07-31T03:09:10.392Z,90.80
2017-07-31T03:11:36.450Z,90.70
2017-07-31T03:14:02.501Z,90.90
2017-07-31T03:16:28.532Z,90.80
2017-07-31T03:18:55.319Z,90.60
2017-07-31T03:21:21.351Z,90.60
2017-07-31T03:23:47.400Z,90.60
2017-07-31T03:26:13.442Z,90.20
2017-07-31T03:28:39.475Z,89.50
2017-07-31T03:31:05.484Z,89.20
2017-07-31T03:33:31.522Z,89.20
2017-07-31T03:35:57.518Z,88.90
2017-07-31T03:38:23.538Z,88.90
2017-07-31T03:40:49.545Z,88.90
2017-07-31T03:43:15.569Z,87.70
2017-07-31T03:45:41.576Z,87.30
2017-07-31T03:48:07.603Z,86.90
2017-07-31T03:50:33.617Z,86.40
2017-07-31T03:52:59.633Z,85.30
2017-07-31T03:55:25.647Z,84.70
2017-07-31T03:57:51.680Z,85.40
2017-07-31T04:00:17.722Z,86.10
2017-07-31T04:02:43.736Z,86.50
2017-07-31T04:05:09.753Z,86.20
2017-07-31T04:07:35.772Z,86.20
2017-07-31T04:10:01.793Z,86.60
2017-07-31T04:12:27.805Z,86.50
2017-07-31T04:14:53.826Z,86.30
2017-07-31T04:17:19.828Z,86.90
2017-07-31T04:19:45.845Z,86.00
2017-07-31T04:22:11.882Z,86.50
2017-07-31T04:24:37.913Z,86.00
2017-07-31T04:27:03.956Z,85.90
2017-07-31T04:29:29.973Z,86.40
2017-07-31T04:31:56.004Z,85.80
2017-07-31T04:34:22.018Z,85.90
2017-07-31T04:36:48.792Z,85.60
2017-07-31T04:39:14.809Z,85.20
2017-07-31T04:41:47.896Z,85.80
2017-07-31T04:44:13.906Z,86.10
2017-07-31T04:46:39.933Z,84.60
2017-07-31T04:49:05.940Z,84.30
2017-07-31T04:51:31.952Z,84.30
2017-07-31T04:53:57.974Z,83.90
2017-07-31T04:56:24.733Z,83.80
2017-07-31T04:58:50.744Z,83.70
2017-07-31T05:01:16.801Z,82.70
2017-07-31T05:03:42.929Z,82.80
2017-07-31T05:06:08.972Z,83.00
2017-07-31T05:08:34.990Z,81.40
2017-07-31T05:11:01.016Z,80.60
2017-07-31T05:13:27.046Z,81.00
2017-07-31T05:15:53.101Z,80.80
2017-07-31T05:18:19.120Z,80.00
2017-07-31T05:20:45.119Z,80.00
2017-07-31T05:23:11.201Z,80.90
2017-07-31T05:25:37.224Z,79.90
2017-07-31T05:28:03.289Z,79.90
2017-07-31T05:30:29.419Z,80.10
2017-07-31T05:32:56.253Z,80.00
2017-07-31T05:35:22.301Z,79.90
2017-07-31T05:37:48.332Z,80.20
2017-07-31T05:40:14.373Z,80.80
2017-07-31T05:42:41.140Z,80.40
2017-07-31T05:45:07.184Z,80.00
2017-07-31T05:47:33.224Z,79.60
2017-07-31T05:50:00.021Z,79.80
2017-07-31T05:52:26.060Z,79.80
2017-07-31T05:54:52.181Z,78.80
2017-07-31T05:57:18.221Z,79.20
2017-07-31T05:59:44.265Z,79.00
2017-07-31T06:02:11.041Z,78.40
2017-07-31T06:04:37.081Z,78.40
2017-07-31T06:07:03.147Z,77.70
2017-07-31T06:09:29.177Z,77.20
2017-07-31T06:11:55.253Z,76.90
2017-07-31T06:14:21.332Z,76.40
2017-07-31T06:16:47.373Z,76.80
2017-07-31T06:19:13.600Z,76.20
2017-07-31T06:21:39.702Z,75.70
2017-07-31T06:24:05.804Z,75.70
2017-07-31T06:26:32.674Z,76.10
2017-07-31T06:28:58.708Z,76.10
2017-07-31T06:31:24.749Z,76.70
2017-07-31T06:33:50.792Z,75.40
2017-07-31T06:36:16.829Z,75.60
2017-07-31T06:38:42.887Z,74.50
2017-07-31T06:41:08.905Z,74.70
2017-07-31T06:43:34.946Z,73.50
2017-07-31T06:46:08.048Z,73.40
2017-07-31T06:48:34.817Z,73.70
2017-07-31T06:51:00.840Z,73.80
2017-07-31T06:53:26.889Z,73.90
2017-07-31T06:55:53.008Z,74.00
2017-07-31T06:58:19.040Z,73.70
2017-07-31T07:00:45.072Z,73.10
2017-07-31T07:03:11.136Z,73.70
2017-07-31T07:05:37.904Z,73.10
2017-07-31T07:08:03.933Z,72.70
2017-07-31T07:10:29.972Z,72.80
2017-07-31T07:12:55.992Z,73.40
2017-07-31T07:15:22.761Z,73.50
2017-07-31T07:17:48.790Z,73.40
2017-07-31T07:20:14.838Z,73.30
2017-07-31T07:22:40.899Z,73.70
2017-07-31T07:25:06.953Z,73.70
2017-07-31T07:27:32.973Z,74.20
2017-07-31T07:29:59.749Z,74.70
2017-07-31T07:32:25.802Z,74.70
2017-07-31T07:34:51.836Z,74.10
2017-07-31T07:37:17.857Z,73.80
2017-07-31T07:39:43.881Z,74.00
2017-07-31T07:42:09.938Z,73.90
2017-07-31T07:44:35.978Z,72.90
2017-07-31T07:47:02.020Z,72.30
2017-07-31T07:49:28.040Z,72.60
2017-07-31T07:51:54.066Z,72.40
2017-07-31T07:54:20.841Z,72.20
2017-07-31T07:56:46.900Z,72.20
2017-07-31T07:59:13.672Z,74.00
2017-07-31T08:01:46.605Z,74.00
2017-07-31T08:04:13.400Z,72.60
2017-07-31T08:06:39.444Z,71.00
2017-07-31T08:09:05.496Z,70.40
2017-07-31T08:11:31.509Z,70.20
2017-07-31T08:13:57.540Z,71.10
2017-07-31T08:16:23.569Z,70.50
2017-07-31T08:18:49.608Z,69.80
2017-07-31T08:21:15.637Z,69.30
2017-07-31T08:23:41.695Z,69.80
2017-07-31T08:26:08.456Z,67.90
2017-07-31T08:28:34.537Z,67.80
2017-07-31T08:31:00.581Z,68.00
2017-07-31T08:33:26.635Z,67.70
2017-07-31T08:35:53.425Z,67.70
2017-07-31T08:38:19.461Z,67.60
2017-07-31T08:40:45.494Z,67.30
2017-07-31T08:43:12.268Z,66.70
2017-07-31T08:45:38.304Z,66.60
2017-07-31T08:48:04.347Z,66.20
2017-07-31T08:50:30.405Z,66.00
2017-07-31T08:52:56.448Z,65.80
2017-07-31T08:55:22.473Z,66.80
2017-07-31T08:57:48.512Z,65.70
2017-07-31T09:00:14.566Z,64.30
2017-07-31T09:02:41.364Z,62.00
2017-07-31T09:05:07.394Z,62.00
2017-07-31T09:07:33.421Z,63.40
2017-07-31T09:09:59.445Z,62.20
2017-07-31T09:12:25.542Z,62.10
2017-07-31T09:14:52.319Z,60.80
2017-07-31T09:17:18.377Z,60.80
2017-07-31T10:01:37.676Z,60.80
2017-07-31T10:04:04.457Z,47.80
2017-07-31T10:06:31.964Z,43.60
2017-07-31T10:08:57.992Z,43.60
2017-07-31T10:11:24.032Z,44.50
2017-07-31T10:13:50.781Z,39.20
2017-07-31T10:16:16.791Z,39.10
2017-07-31T10:18:42.804Z,37.40
2017-07-31T10:21:08.824Z,39.00
2017-07-31T10:23:34.858Z,38.10
2017-07-31T10:26:00.921Z,39.50
2017-07-31T10:28:26.953Z,37.90
2017-07-31T10:30:52.997Z,37.80
2017-07-31T10:33:19.049Z,37.90
2017-07-31T10:35:45.077Z,39.20
2017-07-31T10:38:11.153Z,38.30
2017-07-31T10:40:37.168Z,38.50
2017-07-31T10:43:03.204Z,35.80
2017-07-31T10:45:29.237Z,37.30
2017-07-31T10:47:55.270Z,32.80
2017-07-31T10:50:21.305Z,34.00
2017-07-31T10:52:47.341Z,37.30
2017-07-31T10:55:13.384Z,31.80
2017-07-31T10:57:39.482Z,31.90
2017-07-31T11:00:05.512Z,33.20
2017-07-31T11:02:32.289Z,33.70
2017-07-31T11:04:58.325Z,33.60
2017-07-31T11:07:24.348Z,34.20
2017-07-31T11:09:50.389Z,35.50
2017-07-31T11:12:16.420Z,33.50
2017-07-31T11:14:42.464Z,33.90
2017-07-31T11:17:08.501Z,34.70
2017-07-31T11:19:34.521Z,34.00
2017-07-31T11:22:00.561Z,35.20
2017-07-31T11:24:26.600Z,34.60
2017-07-31T11:26:52.625Z,32.70
2017-07-31T11:29:19.421Z,32.90
2017-07-31T11:31:45.432Z,32.90
2017-07-31T11:34:11.457Z,34.60
2017-07-31T11:36:37.469Z,34.10
2017-07-31T11:39:03.497Z,33.80
2017-07-31T11:41:30.276Z,34.90
2017-07-31T11:44:03.269Z,34.90
2017-07-31T11:46:29.288Z,38.70
2017-07-31T11:48:55.311Z,40.90
2017-07-31T11:51:22.082Z,39.00
2017-07-31T11:53:48.101Z,39.00
2017-07-31T11:56:14.128Z,36.80
2017-07-31T11:58:40.143Z,37.20
2017-07-31T12:01:06.170Z,39.40
2017-07-31T12:03:32.938Z,42.00
2017-07-31T12:05:58.962Z,42.00
2017-07-31T12:08:24.994Z,42.00
2017-07-31T12:10:51.753Z,40.90
2017-07-31T12:13:17.830Z,41.30
2017-07-31T12:15:43.839Z,40.70
2017-07-31T12:18:09.844Z,39.80
2017-07-31T12:20:35.852Z,41.20
2017-07-31T12:23:01.869Z,41.30
2017-07-31T12:25:28.637Z,45.30
2017-07-31T12:27:54.695Z,44.60
2017-07-31T12:30:20.705Z,45.10
2017-07-31T12:32:47.484Z,44.60
2017-07-31T12:35:13.500Z,44.20
2017-07-31T12:37:39.527Z,46.20
2017-07-31T12:40:05.569Z,46.00
2017-07-31T12:42:32.332Z,39.60
2017-07-31T12:44:58.359Z,39.60
2017-07-31T12:47:24.372Z,38.20
2017-07-31T12:49:50.401Z,37.10
2017-07-31T12:52:16.413Z,33.80
2017-07-31T12:54:42.437Z,33.90
2017-07-31T12:57:09.177Z,33.20
2017-07-31T12:59:35.188Z,33.10
2017-07-31T13:02:01.216Z,32.30
2017-07-31T13:04:27.262Z,33.70
2017-07-31T13:06:53.264Z,34.70
2017-07-31T13:09:26.245Z,34.20
2017-07-31T13:11:52.268Z,35.00
2017-07-31T13:14:18.272Z,34.90
2017-07-31T13:16:44.295Z,41.40
2017-07-31T13:19:11.053Z,34.80
2017-07-31T13:21:37.123Z,34.80
2017-07-31T13:24:03.921Z,38.00
2017-07-31T13:26:29.966Z,38.00
2017-07-31T13:28:56.750Z,39.00
2017-07-31T13:31:22.789Z,38.40
2017-07-31T13:33:56.473Z,39.30
2017-07-31T13:36:23.265Z,39.10
2017-07-31T13:38:49.305Z,39.00
2017-07-31T13:41:15.356Z,39.50
2017-07-31T13:43:41.430Z,39.70
2017-07-31T13:46:08.193Z,42.00
2017-07-31T13:48:34.237Z,41.90
2017-07-31T13:51:00.260Z,43.10
2017-07-31T13:53:26.321Z,43.90
2017-07-31T13:55:52.360Z,44.40
2017-07-31T13:58:18.396Z,44.10
2017-07-31T14:00:45.176Z,44.60
2017-07-31T14:03:11.204Z,44.50
2017-07-31T14:05:37.242Z,45.50
2017-07-31T14:08:04.016Z,46.00
2017-07-31T14:10:30.020Z,46.00
2017-07-31T14:12:56.040Z,46.30
2017-07-31T14:15:22.073Z,47.80
2017-07-31T14:17:48.089Z,51.50
2017-07-31T14:20:14.110Z,45.50
2017-07-31T14:22:40.117Z,47.80
2017-07-31T14:25:06.892Z,42.10
2017-07-31T14:27:32.916Z,42.10
2017-07-31T14:29:58.970Z,40.40
2017-07-31T14:32:25.727Z,42.80
2017-07-31T14:34:51.765Z,42.90
2017-07-31T14:37:17.797Z,39.40
2017-07-31T14:39:43.815Z,40.50
2017-07-31T14:42:11.402Z,47.50
2017-07-31T14:44:37.413Z,47.50
2017-07-31T14:47:03.428Z,42.60
2017-07-31T14:49:29.442Z,45.20
2017-07-31T14:51:55.466Z,42.50
2017-07-31T14:54:21.472Z,46.10
2017-07-31T14:56:47.502Z,43.60
2017-07-31T14:59:13.504Z,42.70
2017-07-31T15:01:39.546Z,48.00
2017-07-31T15:04:05.568Z,46.80
2017-07-31T15:06:38.684Z,49.00
2017-07-31T15:09:04.708Z,47.40
2017-07-31T15:11:30.726Z,48.60
2017-07-31T15:13:57.496Z,46.20
2017-07-31T15:16:23.579Z,46.20
2017-07-31T15:18:49.613Z,50.10
2017-07-31T15:21:16.360Z,42.20
2017-07-31T15:23:42.428Z,41.30
2017-07-31T15:26:08.464Z,36.80
2017-07-31T15:28:34.513Z,37.10
2017-07-31T15:31:01.371Z,34.00
2017-07-31T15:33:27.454Z,34.10
2017-07-31T15:35:54.225Z,29.60
2017-07-31T15:38:20.236Z,29.60
2017-07-31T15:40:46.349Z,29.50
2017-07-31T15:43:12.388Z,31.20
2017-07-31T15:45:38.430Z,30.00
2017-07-31T15:48:04.544Z,31.70
2017-07-31T15:50:31.528Z,34.00
2017-07-31T15:52:57.553Z,34.10
2017-07-31T15:55:23.580Z,38.70
2017-07-31T15:57:56.625Z,38.50
2017-07-31T16:00:22.653Z,39.60
2017-07-31T16:02:48.701Z,31.80
2017-07-31T16:05:14.724Z,31.70
2017-07-31T16:07:40.757Z,29.30
2017-07-31T16:10:06.849Z,30.10
2017-07-31T16:12:32.848Z,30.70
2017-07-31T16:14:58.880Z,32.20
2017-07-31T16:17:31.796Z,31.50
2017-07-31T16:19:57.805Z,31.50
2017-07-31T16:22:23.872Z,30.10
2017-07-31T16:24:49.897Z,30.60
2017-07-31T16:27:15.925Z,30.60
2017-07-31T16:29:41.948Z,30.40
2017-07-31T16:32:08.573Z,30.70
2017-07-31T16:34:34.624Z,30.80
2017-07-31T16:37:00.633Z,31.10
2017-07-31T16:39:26.691Z,33.50
2017-07-31T16:41:56.633Z,33.20
2017-07-31T16:44:30.740Z,33.50
2017-07-31T16:46:56.746Z,31.00
2017-07-31T16:49:22.773Z,31.70
2017-07-31T16:51:48.789Z,32.20
2017-07-31T16:54:14.826Z,32.40
2017-07-31T16:56:40.838Z,32.50
2017-07-31T16:59:06.849Z,35.10
2017-07-31T17:01:32.873Z,35.10
2017-07-31T17:03:58.912Z,37.90
2017-07-31T17:06:24.928Z,39.50
2017-07-31T17:08:50.952Z,40.30
2017-07-31T17:11:17.721Z,42.60
2017-07-31T17:13:43.725Z,42.60
2017-07-31T17:16:09.753Z,43.10
2017-07-31T17:18:35.781Z,44.60
2017-07-31T17:21:01.797Z,44.50
2017-07-31T17:23:27.812Z,45.50
2017-07-31T17:25:53.826Z,48.00
2017-07-31T17:28:19.833Z,47.40
2017-07-31T17:30:45.857Z,48.50
2017-07-31T17:33:11.910Z,49.20
2017-07-31T17:35:37.938Z,49.80
2017-07-31T17:38:03.952Z,50.60
2017-07-31T17:40:29.985Z,51.00
2017-07-31T17:42:56.010Z,50.20
2017-07-31T17:45:22.040Z,51.20
2017-07-31T17:47:48.042Z,51.30
2017-07-31T17:50:14.073Z,50.40
2017-07-31T17:52:40.090Z,51.90
2017-07-31T17:55:06.112Z,54.70
2017-07-31T17:57:32.146Z,52.50
2017-07-31T17:59:58.168Z,53.70
2017-07-31T18:02:24.193Z,53.40
2017-07-31T18:04:50.272Z,54.00
2017-07-31T18:07:16.309Z,55.00
2017-07-31T18:09:42.325Z,55.30
2017-07-31T18:12:15.313Z,55.60
2017-07-31T18:14:41.349Z,56.10
2017-07-31T18:17:07.397Z,56.40
2017-07-31T18:19:33.426Z,53.80
2017-07-31T18:21:59.445Z,53.50
2017-07-31T18:24:25.477Z,54.30
2017-07-31T18:26:51.505Z,56.10
2017-07-31T18:29:18.272Z,56.20
2017-07-31T18:31:44.317Z,56.10
2017-07-31T18:34:10.337Z,55.60
2017-07-31T18:36:37.121Z,58.60
2017-07-31T18:39:03.166Z,57.90
2017-07-31T18:41:29.194Z,57.10
2017-07-31T18:43:55.225Z,57.90
2017-07-31T18:46:21.262Z,59.50
2017-07-31T18:48:47.300Z,58.50
2017-07-31T18:51:13.332Z,59.40
2017-07-31T18:53:40.105Z,60.00
2017-07-31T18:56:06.137Z,60.00
2017-07-31T18:58:32.176Z,59.90
2017-07-31T19:00:58.953Z,61.20
2017-07-31T19:03:24.989Z,61.10
2017-07-31T19:05:51.112Z,61.20
2017-07-31T19:08:17.873Z,61.80
2017-07-31T19:10:44.159Z,61.80
2017-07-31T19:13:10.227Z,61.90
2017-07-31T19:15:36.297Z,61.90
2017-07-31T19:18:02.329Z,62.30
2017-07-31T19:20:28.377Z,62.50
2017-07-31T19:22:54.745Z,62.90
2017-07-31T19:25:20.780Z,63.60
2017-07-31T19:27:46.810Z,63.80
2017-07-31T19:30:12.880Z,62.80
2017-07-31T19:32:38.913Z,64.30
2017-07-31T19:35:04.949Z,64.90
2017-07-31T19:37:31.795Z,65.00
2017-07-31T19:39:57.886Z,65.00
2017-07-31T19:42:24.724Z,65.90
2017-07-31T19:44:50.749Z,65.90
2017-07-31T19:47:16.783Z,65.10
2017-07-31T19:49:42.797Z,65.00
2017-07-31T19:52:08.875Z,66.50
2017-07-31T19:54:34.905Z,65.40
2017-07-31T19:57:00.932Z,66.20
2017-07-31T19:59:26.977Z,65.70
2017-07-31T20:01:53.028Z,66.30
2017-07-31T20:04:19.053Z,65.40
2017-07-31T20:06:45.109Z,66.20
2017-07-31T20:09:11.885Z,66.10
2017-07-31T20:11:37.920Z,66.10
2017-07-31T20:14:05.851Z,66.50
2017-07-31T20:16:31.898Z,66.90
2017-07-31T20:18:58.665Z,67.80
2017-07-31T20:21:24.689Z,67.80
2017-07-31T20:23:50.794Z,67.80
2017-07-31T20:26:16.820Z,67.40
2017-07-31T20:28:42.872Z,67.70
2017-07-31T20:31:08.918Z,67.60
2017-07-31T20:33:34.994Z,68.00
2017-07-31T20:36:01.061Z,67.10
2017-07-31T20:38:27.090Z,67.30
2017-07-31T20:40:53.928Z,69.10
2017-07-31T20:43:20.685Z,69.20
2017-07-31T20:45:46.718Z,69.10
2017-07-31T20:48:12.818Z,69.00
2017-07-31T20:50:38.985Z,69.00
2017-07-31T20:53:05.140Z,69.20
2017-07-31T20:55:31.319Z,69.10
2017-07-31T20:57:57.391Z,69.00
2017-07-31T21:00:24.252Z,69.50
2017-07-31T21:02:50.397Z,69.50
2017-07-31T21:05:16.476Z,69.60
2017-07-31T21:07:42.622Z,70.20
2017-07-31T21:10:08.755Z,70.40
2017-07-31T21:12:34.790Z,70.20
2017-07-31T21:15:01.573Z,70.90
2017-07-31T21:17:27.612Z,70.60
2017-07-31T21:19:53.632Z,70.50
2017-07-31T21:22:19.685Z,70.90
2017-07-31T21:24:45.790Z,70.50
2017-07-31T21:27:11.821Z,71.00
2017-07-31T21:29:37.861Z,71.20
2017-07-31T21:32:04.634Z,71.00
2017-07-31T21:34:30.676Z,71.00
2017-07-31T21:36:56.705Z,71.60
2017-07-31T21:39:22.721Z,71.90
2017-07-31T21:41:49.480Z,72.60
2017-07-31T21:44:15.509Z,72.60
2017-07-31T21:46:41.540Z,72.20
2017-07-31T21:49:07.598Z,72.50
2017-07-31T21:51:33.693Z,72.70
2017-07-31T21:53:59.732Z,73.00
2017-07-31T21:56:25.792Z,73.20
2017-07-31T21:58:51.809Z,73.10
2017-07-31T22:01:18.580Z,73.10
2017-07-31T22:03:44.601Z,73.10
2017-07-31T22:06:10.636Z,72.50
2017-07-31T22:08:36.661Z,72.80
2017-07-31T22:11:03.447Z,71.80
2017-07-31T22:13:29.476Z,71.80
2017-07-31T22:15:55.501Z,72.80
2017-07-31T22:18:23.301Z,72.50
2017-07-31T22:20:55.492Z,72.50
2017-07-31T22:23:21.557Z,73.30
2017-07-31T22:25:47.597Z,73.80
2017-07-31T22:28:13.626Z,73.20
2017-07-31T22:30:40.405Z,73.50
2017-07-31T22:33:06.450Z,73.50
2017-07-31T22:35:32.482Z,73.60
2017-07-31T22:37:59.252Z,73.60
2017-07-31T22:40:25.273Z,73.60
2017-07-31T22:42:51.298Z,73.40
2017-07-31T22:45:17.428Z,72.90
2017-07-31T22:47:44.248Z,73.70
2017-07-31T22:50:10.307Z,73.70
2017-07-31T22:52:36.349Z,73.30
2017-07-31T22:55:02.377Z,73.30
2017-07-31T22:57:29.160Z,73.30
2017-07-31T22:59:55.189Z,73.30
2017-07-31T23:02:21.222Z,73.90
2017-07-31T23:04:47.249Z,73.60
2017-07-31T23:07:13.292Z,74.10
2017-07-31T23:09:39.328Z,73.70
2017-07-31T23:12:05.357Z,74.70
2017-07-31T23:14:31.412Z,74.80
2017-07-31T23:16:57.444Z,73.50
2017-07-31T23:19:23.476Z,74.80
2017-07-31T23:21:49.505Z,74.60
2017-07-31T23:24:16.290Z,74.60
2017-07-31T23:26:42.324Z,74.60
2017-07-31T23:29:09.111Z,74.50
2017-07-31T23:31:35.136Z,74.50
2017-07-31T23:34:01.161Z,73.70
2017-07-31T23:36:27.184Z,73.80
2017-07-31T23:38:53.940Z,74.30
2017-07-31T23:41:19.985Z,74.30
2017-07-31T23:43:46.012Z,74.60
2017-07-31T23:46:12.797Z,74.00
2017-07-31T23:48:38.824Z,74.00
2017-07-31T23:51:04.853Z,74.30
2017-07-31T23:53:30.865Z,74.10
2017-07-31T23:55:56.897Z,73.40
2017-07-31T23:58:22.941Z,73.90
